createdAt,value
2023-05-06T00:00:00.025Z,6.70
2023-05-06T00:00:59.981Z,6.60
2023-05-06T00:02:00.005Z,6.50
2023-05-06T00:02:59.979Z,6.70
2023-05-06T00:04:00.190Z,6.70
2023-05-06T00:04:59.917Z,6.50
2023-05-06T00:05:59.956Z,6.40
2023-05-06T00:07:00.041Z,6.80
2023-05-06T00:07:59.898Z,6.20
2023-05-06T00:08:59.882Z,6.40
2023-05-06T00:09:59.890Z,6.70
2023-05-06T00:10:59.877Z,6.30
2023-05-06T00:11:59.866Z,6.50
2023-05-06T00:12:59.845Z,6.80
2023-05-06T00:13:59.833Z,6.70
2023-05-06T00:14:59.804Z,7.80
2023-05-06T00:15:59.875Z,6.50
2023-05-06T00:16:59.843Z,6.80
2023-05-06T00:17:59.836Z,7.90
2023-05-06T00:18:59.771Z,7.20
2023-05-06T00:19:59.792Z,7.40
2023-05-06T00:20:59.781Z,7.50
2023-05-06T00:21:59.746Z,6.90
2023-05-06T00:22:59.735Z,7.40
2023-05-06T00:23:59.765Z,6.50
2023-05-06T00:24:59.701Z,7.50
2023-05-06T00:25:59.725Z,6.80
2023-05-06T00:26:59.688Z,6.90
2023-05-06T00:27:59.695Z,7.30
2023-05-06T00:28:59.709Z,6.80
2023-05-06T00:29:59.686Z,7.50
2023-05-06T00:30:59.688Z,7.50
2023-05-06T00:31:59.678Z,6.80
2023-05-06T00:32:59.638Z,7.60
2023-05-06T00:33:59.632Z,7.80
2023-05-06T00:34:59.639Z,7.50
2023-05-06T00:35:59.606Z,7.20
2023-05-06T00:36:59.596Z,7.20
2023-05-06T00:37:59.574Z,7.40
2023-05-06T00:38:59.615Z,7.10
2023-05-06T00:39:59.590Z,7.30
2023-05-06T00:40:59.593Z,7.00
2023-05-06T00:41:59.555Z,7.80
2023-05-06T00:42:59.527Z,7.40
2023-05-06T00:43:59.570Z,7.70
2023-05-06T00:44:59.493Z,7.40
2023-05-06T00:45:59.551Z,7.30
2023-05-06T00:46:59.503Z,7.20
2023-05-06T00:47:59.555Z,7.80
2023-05-06T00:48:59.511Z,7.60
2023-05-06T00:49:59.462Z,7.00
2023-05-06T00:50:59.458Z,7.70
2023-05-06T00:51:59.440Z,7.10
2023-05-06T00:52:59.445Z,6.70
2023-05-06T00:53:59.479Z,7.70
2023-05-06T00:54:59.421Z,7.90
2023-05-06T00:55:59.411Z,7.50
2023-05-06T00:56:59.387Z,7.60
2023-05-06T00:57:59.391Z,7.90
2023-05-06T00:58:59.400Z,7.10
2023-05-06T00:59:59.364Z,7.80
2023-05-06T01:00:59.368Z,7.60
2023-05-06T01:01:59.342Z,7.20
2023-05-06T01:02:59.544Z,7.40
2023-05-06T01:03:59.433Z,7.10
2023-05-06T01:04:59.345Z,6.90
2023-05-06T01:05:59.305Z,7.20
2023-05-06T01:06:59.336Z,7.00
2023-05-06T01:07:59.310Z,7.90
2023-05-06T01:08:59.276Z,7.70
2023-05-06T01:09:59.266Z,6.90
2023-05-06T01:10:59.293Z,6.70
2023-05-06T01:11:59.260Z,7.50
2023-05-06T01:12:59.258Z,7.00
2023-05-06T01:13:59.232Z,6.70
2023-05-06T01:14:59.231Z,6.70
2023-05-06T01:15:59.216Z,7.70
2023-05-06T01:16:59.249Z,7.30
2023-05-06T01:17:59.219Z,7.10
2023-05-06T01:18:59.179Z,7.80
2023-05-06T01:19:59.210Z,7.30
2023-05-06T01:20:59.148Z,7.50
2023-05-06T01:21:59.194Z,7.00
2023-05-06T01:22:59.124Z,7.60
2023-05-06T01:23:59.115Z,7.00
2023-05-06T01:24:59.120Z,6.80
2023-05-06T01:25:59.120Z,7.50
2023-05-06T01:26:59.146Z,6.80
2023-05-06T01:27:59.087Z,7.20
2023-05-06T01:28:59.087Z,7.20
2023-05-06T01:29:59.043Z,7.40
2023-05-06T01:30:59.146Z,7.60
2023-05-06T01:31:59.030Z,7.20
2023-05-06T01:32:59.044Z,7.30
2023-05-06T01:33:59.025Z,7.50
2023-05-06T01:34:59.031Z,7.40
2023-05-06T01:35:59.009Z,7.40
2023-05-06T01:36:59.002Z,7.30
2023-05-06T01:37:58.964Z,7.40
2023-05-06T01:38:58.971Z,7.00
2023-05-06T01:39:59.023Z,7.30
2023-05-06T01:40:58.933Z,7.00
2023-05-06T01:41:58.931Z,7.10
2023-05-06T01:42:58.925Z,7.60
2023-05-06T01:43:58.927Z,7.10
2023-05-06T01:44:58.926Z,7.30
2023-05-06T01:45:58.918Z,6.90
2023-05-06T01:46:58.919Z,7.00
2023-05-06T01:47:58.879Z,7.00
2023-05-06T01:48:58.882Z,7.70
2023-05-06T01:49:58.882Z,7.80
2023-05-06T01:50:58.849Z,7.30
2023-05-06T01:51:58.877Z,7.60
2023-05-06T01:52:58.942Z,7.60
2023-05-06T01:53:58.841Z,7.70
2023-05-06T01:54:58.816Z,7.30
2023-05-06T01:55:58.787Z,8.20
2023-05-06T01:56:58.777Z,7.30
2023-05-06T01:57:58.758Z,7.80
2023-05-06T01:58:59.552Z,6.90
2023-05-06T01:59:58.748Z,7.50
2023-05-06T02:00:58.737Z,7.20
2023-05-06T02:01:58.756Z,8.00
2023-05-06T02:02:58.811Z,7.00
2023-05-06T02:03:58.882Z,7.70
2023-05-06T02:04:58.700Z,7.20
2023-05-06T02:05:58.719Z,7.40
2023-05-06T02:06:58.690Z,7.30
2023-05-06T02:07:58.725Z,7.10
2023-05-06T02:08:58.668Z,6.90
2023-05-06T02:09:58.636Z,7.20
2023-05-06T02:10:58.643Z,7.30
2023-05-06T02:11:58.625Z,6.40
2023-05-06T02:12:58.696Z,6.80
2023-05-06T02:13:58.619Z,6.50
2023-05-06T02:14:58.599Z,6.30
2023-05-06T02:15:58.602Z,6.70
2023-05-06T02:16:58.610Z,5.90
2023-05-06T02:17:58.613Z,6.70
2023-05-06T02:18:58.606Z,6.10
2023-05-06T02:19:58.534Z,6.10
2023-05-06T02:20:58.545Z,6.40
2023-05-06T02:21:58.663Z,6.50
2023-05-06T02:22:58.508Z,6.10
2023-05-06T02:23:58.517Z,5.90
2023-05-06T02:24:58.497Z,6.10
2023-05-06T02:25:58.521Z,5.90
2023-05-06T02:26:58.495Z,5.80
2023-05-06T02:27:58.466Z,5.60
2023-05-06T02:28:58.462Z,4.80
2023-05-06T02:29:58.434Z,5.40
2023-05-06T02:30:58.510Z,4.70
2023-05-06T02:31:58.499Z,4.70
2023-05-06T02:32:58.471Z,4.90
2023-05-06T02:33:58.439Z,5.00
2023-05-06T02:34:58.399Z,5.10
2023-05-06T02:35:58.402Z,4.90
2023-05-06T02:36:58.372Z,5.30
2023-05-06T02:37:58.385Z,5.70
2023-05-06T02:38:58.359Z,5.50
2023-05-06T02:39:58.359Z,5.10
2023-05-06T02:40:58.401Z,5.60
2023-05-06T02:41:58.311Z,5.20
2023-05-06T02:42:58.341Z,5.40
2023-05-06T02:43:58.323Z,5.80
2023-05-06T02:44:58.310Z,5.30
2023-05-06T02:45:58.393Z,5.30
2023-05-06T02:46:58.283Z,5.40
2023-05-06T02:47:58.284Z,6.00
2023-05-06T02:48:58.256Z,5.80
2023-05-06T02:49:58.336Z,5.40
2023-05-06T02:50:58.248Z,5.00
2023-05-06T02:51:58.295Z,5.40
2023-05-06T02:52:58.218Z,5.50
2023-05-06T02:53:58.221Z,5.40
2023-05-06T02:54:58.268Z,5.60
2023-05-06T02:55:58.201Z,5.80
2023-05-06T02:56:58.170Z,6.50
2023-05-06T02:57:58.179Z,5.50
2023-05-06T02:58:58.202Z,5.70
2023-05-06T02:59:58.158Z,5.50
2023-05-06T03:00:58.222Z,6.00
2023-05-06T03:01:58.152Z,5.90
2023-05-06T03:02:58.156Z,6.80
2023-05-06T03:03:58.142Z,6.00
2023-05-06T03:04:58.085Z,5.70
2023-05-06T03:05:58.071Z,6.00
2023-05-06T03:06:58.071Z,5.70
2023-05-06T03:07:58.111Z,5.90
2023-05-06T03:08:58.020Z,5.80
2023-05-06T03:09:57.969Z,6.80
2023-05-06T03:10:57.964Z,6.30
2023-05-06T03:11:57.949Z,6.10
2023-05-06T03:12:58.002Z,6.60
2023-05-06T03:13:57.978Z,6.20
2023-05-06T03:14:57.922Z,6.40
2023-05-06T03:15:57.902Z,6.20
2023-05-06T03:16:58.014Z,6.00
2023-05-06T03:17:57.970Z,5.80
2023-05-06T03:18:57.926Z,5.40
2023-05-06T03:19:57.907Z,5.50
2023-05-06T03:20:57.959Z,5.50
2023-05-06T03:21:57.892Z,5.60
2023-05-06T03:22:57.898Z,5.20
2023-05-06T03:23:57.857Z,6.30
2023-05-06T03:24:57.872Z,5.50
2023-05-06T03:25:57.812Z,6.50
2023-05-06T03:26:57.835Z,6.20
2023-05-06T03:27:57.799Z,6.70
2023-05-06T03:28:57.795Z,6.70
2023-05-06T03:29:57.736Z,6.00
2023-05-06T03:30:57.749Z,7.00
2023-05-06T03:31:57.861Z,6.70
2023-05-06T03:32:57.758Z,6.70
2023-05-06T03:33:57.710Z,6.30
2023-05-06T03:34:57.746Z,6.30
2023-05-06T03:35:57.685Z,6.60
2023-05-06T03:36:57.716Z,6.60
2023-05-06T03:37:57.795Z,6.20
2023-05-06T03:38:57.669Z,6.10
2023-05-06T03:39:57.664Z,6.60
2023-05-06T03:40:57.725Z,6.30
2023-05-06T03:41:57.697Z,6.20
2023-05-06T03:42:57.644Z,6.20
2023-05-06T03:43:57.630Z,6.00
2023-05-06T03:44:57.624Z,6.70
2023-05-06T03:45:57.662Z,5.90
2023-05-06T03:46:57.628Z,6.60
2023-05-06T03:47:58.578Z,6.30
2023-05-06T03:48:57.580Z,6.00
2023-05-06T03:49:57.590Z,6.00
2023-05-06T03:50:57.598Z,6.00
2023-05-06T03:51:57.513Z,5.90
2023-05-06T03:52:57.524Z,5.90
2023-05-06T03:53:57.538Z,5.90
2023-05-06T03:54:57.596Z,5.10
2023-05-06T03:55:57.510Z,6.20
2023-05-06T03:56:57.705Z,6.70
2023-05-06T03:57:57.469Z,6.60
2023-05-06T03:58:57.468Z,6.10
2023-05-06T03:59:57.456Z,6.60
2023-05-06T04:00:58.119Z,6.30
2023-05-06T04:01:57.486Z,6.40
2023-05-06T04:02:57.544Z,6.40
2023-05-06T04:03:57.549Z,6.60
2023-05-06T04:04:57.453Z,6.30
2023-05-06T04:05:57.413Z,6.00
2023-05-06T04:06:57.371Z,6.00
2023-05-06T04:07:57.373Z,6.20
2023-05-06T04:08:57.425Z,6.20
2023-05-06T04:09:57.350Z,6.80
2023-05-06T04:10:57.341Z,6.60
2023-05-06T04:11:57.369Z,6.60
2023-05-06T04:12:57.337Z,6.40
2023-05-06T04:13:57.333Z,6.30
2023-05-06T04:14:57.304Z,6.50
2023-05-06T04:15:57.321Z,6.90
2023-05-06T04:16:57.264Z,6.70
2023-05-06T04:17:57.325Z,6.30
2023-05-06T04:18:57.268Z,6.10
2023-05-06T04:19:57.226Z,6.10
2023-05-06T04:20:57.226Z,6.80
2023-05-06T04:21:57.232Z,6.30
2023-05-06T04:22:57.276Z,6.30
2023-05-06T04:23:57.204Z,5.70
2023-05-06T04:24:57.184Z,5.50
2023-05-06T04:25:57.179Z,5.30
2023-05-06T04:26:57.168Z,5.80
2023-05-06T04:27:57.238Z,6.20
2023-05-06T04:28:57.163Z,6.00
2023-05-06T04:29:57.131Z,6.00
2023-05-06T04:30:57.137Z,5.20
2023-05-06T04:31:57.196Z,5.60
2023-05-06T04:32:57.261Z,5.80
2023-05-06T04:33:57.139Z,5.30
2023-05-06T04:34:57.113Z,5.60
2023-05-06T04:35:57.065Z,5.60
2023-05-06T04:36:57.172Z,5.60
2023-05-06T04:37:57.089Z,5.80
2023-05-06T04:38:57.093Z,5.80
2023-05-06T04:39:57.032Z,6.20
2023-05-06T04:40:57.090Z,6.00
2023-05-06T04:41:57.046Z,6.90
2023-05-06T04:42:57.017Z,6.70
2023-05-06T04:43:57.070Z,7.20
2023-05-06T04:44:57.000Z,7.20
2023-05-06T04:45:57.051Z,8.10
2023-05-06T04:46:56.986Z,7.70
2023-05-06T04:47:56.975Z,7.70
2023-05-06T04:48:56.988Z,8.30
2023-05-06T04:49:56.957Z,8.20
2023-05-06T04:50:56.962Z,8.70
2023-05-06T04:51:56.913Z,8.60
2023-05-06T04:52:56.901Z,8.80
2023-05-06T04:53:56.915Z,7.40
2023-05-06T04:54:56.911Z,7.80
2023-05-06T04:55:56.922Z,6.40
2023-05-06T04:56:56.879Z,7.20
2023-05-06T04:57:56.841Z,6.10
2023-05-06T04:58:56.869Z,5.60
2023-05-06T04:59:56.870Z,6.50
2023-05-06T05:00:56.858Z,6.50
2023-05-06T05:01:56.847Z,6.20
2023-05-06T05:02:56.854Z,6.30
2023-05-06T05:03:56.798Z,6.40
2023-05-06T05:04:56.835Z,6.50
2023-05-06T05:05:56.764Z,6.20
2023-05-06T05:06:56.762Z,6.30
2023-05-06T05:07:56.767Z,6.20
2023-05-06T05:08:57.106Z,6.10
2023-05-06T05:09:56.760Z,7.20
2023-05-06T05:10:56.733Z,7.30
2023-05-06T05:11:56.705Z,8.10
2023-05-06T05:12:56.768Z,7.50
2023-05-06T05:13:57.731Z,7.90
2023-05-06T05:14:56.682Z,7.90
2023-05-06T05:15:56.672Z,7.80
2023-05-06T05:16:56.686Z,6.70
2023-05-06T05:17:56.644Z,6.90
2023-05-06T05:18:56.655Z,6.50
2023-05-06T05:19:56.623Z,6.50
2023-05-06T05:20:56.608Z,6.20
2023-05-06T05:21:56.629Z,6.10
2023-05-06T05:22:56.586Z,5.90
2023-05-06T05:23:56.637Z,6.10
2023-05-06T05:24:56.576Z,6.20
2023-05-06T05:25:56.565Z,6.30
2023-05-06T05:26:56.559Z,5.70
2023-05-06T05:27:56.560Z,6.20
2023-05-06T05:28:56.575Z,6.70
2023-05-06T05:29:56.588Z,6.20
2023-05-06T05:30:56.534Z,6.30
2023-05-06T05:31:56.500Z,6.60
2023-05-06T05:32:56.604Z,5.80
2023-05-06T05:33:56.544Z,5.80
2023-05-06T05:34:56.476Z,6.30
2023-05-06T05:35:56.467Z,6.20
2023-05-06T05:36:56.497Z,6.30
2023-05-06T05:37:56.482Z,5.90
2023-05-06T05:38:56.432Z,6.00
2023-05-06T05:39:56.417Z,5.80
2023-05-06T05:40:56.406Z,6.20
2023-05-06T05:41:56.434Z,6.20
2023-05-06T05:42:56.452Z,5.60
2023-05-06T05:43:56.392Z,5.60
2023-05-06T05:44:56.356Z,5.90
2023-05-06T05:45:56.382Z,5.50
2023-05-06T05:46:56.377Z,5.00
2023-05-06T05:47:56.339Z,5.30
2023-05-06T05:48:56.322Z,5.20
2023-05-06T05:49:56.310Z,5.40
2023-05-06T05:50:56.348Z,5.00
2023-05-06T05:51:56.328Z,5.00
2023-05-06T05:52:56.282Z,4.80
2023-05-06T05:53:56.269Z,5.00
2023-05-06T05:54:56.250Z,5.20
2023-05-06T05:55:56.280Z,5.00
2023-05-06T05:56:56.226Z,5.50
2023-05-06T05:57:56.230Z,5.50
2023-05-06T05:58:56.218Z,5.40
2023-05-06T05:59:56.200Z,5.60
2023-05-06T06:00:56.232Z,5.70
2023-05-06T06:01:56.181Z,5.30
2023-05-06T06:02:56.232Z,5.40
2023-05-06T06:03:56.601Z,5.20
2023-05-06T06:04:56.291Z,5.00
2023-05-06T06:05:56.173Z,4.90
2023-05-06T06:06:56.114Z,4.60
2023-05-06T06:07:56.145Z,4.40
2023-05-06T06:08:56.115Z,4.40
2023-05-06T06:09:56.156Z,4.50
2023-05-06T06:10:56.113Z,4.70
2023-05-06T06:11:56.078Z,4.80
2023-05-06T06:12:56.158Z,4.10
2023-05-06T06:13:56.066Z,4.40
2023-05-06T06:14:56.075Z,4.70
2023-05-06T06:15:56.084Z,4.30
2023-05-06T06:16:56.023Z,4.60
2023-05-06T06:17:56.045Z,4.40
2023-05-06T06:18:56.010Z,4.80
2023-05-06T06:19:56.028Z,4.60
2023-05-06T06:20:55.975Z,5.90
2023-05-06T06:21:55.965Z,5.00
2023-05-06T06:22:55.957Z,5.10
2023-05-06T06:23:55.974Z,4.90
2023-05-06T06:24:55.980Z,5.70
2023-05-06T06:25:55.925Z,4.80
2023-05-06T06:26:55.903Z,4.50
2023-05-06T06:27:55.908Z,4.20
2023-05-06T06:28:55.926Z,4.20
2023-05-06T06:29:55.927Z,4.60
2023-05-06T06:30:55.878Z,4.80
2023-05-06T06:31:55.913Z,4.70
2023-05-06T06:32:55.928Z,4.80
2023-05-06T06:33:55.880Z,4.80
2023-05-06T06:34:55.862Z,4.50
2023-05-06T06:35:55.822Z,4.30
2023-05-06T06:36:55.805Z,4.40
2023-05-06T06:37:55.877Z,4.80
2023-05-06T06:38:55.830Z,3.90
2023-05-06T06:39:55.789Z,4.50
2023-05-06T06:40:55.769Z,3.90
2023-05-06T06:41:55.767Z,4.20
2023-05-06T06:42:55.782Z,4.10
2023-05-06T06:43:55.765Z,4.20
2023-05-06T06:44:55.732Z,4.30
2023-05-06T06:45:55.767Z,4.30
2023-05-06T06:46:55.700Z,4.40
2023-05-06T06:47:55.777Z,4.10
2023-05-06T06:48:55.703Z,4.20
2023-05-06T06:49:55.669Z,4.20
2023-05-06T06:50:55.664Z,4.20
2023-05-06T06:51:55.823Z,4.10
2023-05-06T06:52:55.681Z,4.50
2023-05-06T06:53:55.650Z,4.00
2023-05-06T06:54:55.633Z,4.40
2023-05-06T06:55:55.618Z,4.10
2023-05-06T06:56:55.639Z,4.30
2023-05-06T06:57:55.593Z,4.30
2023-05-06T06:58:55.599Z,4.40
2023-05-06T06:59:55.578Z,4.60
2023-05-06T07:00:55.667Z,4.60
2023-05-06T07:01:55.595Z,4.30
2023-05-06T07:02:55.597Z,4.10
2023-05-06T07:03:55.588Z,4.40
2023-05-06T07:04:55.589Z,5.20
2023-05-06T07:05:55.571Z,8.00
2023-05-06T07:06:55.550Z,11.00
2023-05-06T07:07:55.558Z,12.40
2023-05-06T07:08:55.483Z,13.10
2023-05-06T07:09:55.482Z,14.80
2023-05-06T07:10:55.510Z,14.80
2023-05-06T07:11:55.442Z,15.00
2023-05-06T07:12:55.493Z,14.50
2023-05-06T07:13:55.431Z,14.80
2023-05-06T07:14:55.436Z,13.80
2023-05-06T07:15:55.431Z,14.30
2023-05-06T07:16:55.466Z,15.20
2023-05-06T07:17:55.441Z,16.00
2023-05-06T07:18:55.391Z,13.30
2023-05-06T07:19:55.383Z,10.60
2023-05-06T07:20:55.371Z,9.20
2023-05-06T07:21:55.390Z,8.90
2023-05-06T07:22:55.322Z,8.30
2023-05-06T07:23:55.360Z,8.40
2023-05-06T07:24:55.312Z,8.60
2023-05-06T07:25:55.373Z,8.20
2023-05-06T07:26:55.300Z,7.70
2023-05-06T07:27:55.310Z,7.80
2023-05-06T07:28:55.282Z,7.50
2023-05-06T07:29:55.259Z,7.70
2023-05-06T07:30:55.315Z,7.40
2023-05-06T07:31:55.232Z,7.90
2023-05-06T07:32:55.263Z,8.30
2023-05-06T07:33:55.250Z,8.50
2023-05-06T07:34:55.231Z,8.60
2023-05-06T07:35:55.205Z,8.40
2023-05-06T07:36:55.218Z,8.80
2023-05-06T07:37:55.189Z,9.20
2023-05-06T07:38:55.204Z,8.60
2023-05-06T07:39:55.170Z,8.90
2023-05-06T07:40:55.175Z,9.00
2023-05-06T07:41:55.140Z,8.40
2023-05-06T07:42:55.161Z,8.70
2023-05-06T07:43:55.160Z,8.10
2023-05-06T07:44:55.108Z,8.10
2023-05-06T07:45:55.206Z,8.40
2023-05-06T07:46:55.160Z,8.10
2023-05-06T07:47:55.241Z,8.30
2023-05-06T07:48:55.083Z,8.00
2023-05-06T07:49:55.089Z,8.00
2023-05-06T07:50:55.057Z,7.60
2023-05-06T07:51:55.052Z,8.20
2023-05-06T07:52:55.071Z,7.90
2023-05-06T07:53:55.045Z,8.70
2023-05-06T07:54:55.018Z,8.80
2023-05-06T07:55:54.999Z,7.70
2023-05-06T07:56:55.008Z,7.60
2023-05-06T07:57:55.019Z,7.20
2023-05-06T07:58:54.982Z,6.80
2023-05-06T07:59:54.958Z,6.90
2023-05-06T08:00:54.937Z,5.90
2023-05-06T08:01:54.976Z,5.40
2023-05-06T08:02:54.967Z,5.10
2023-05-06T08:03:55.048Z,4.60
2023-05-06T08:04:55.072Z,4.90
2023-05-06T08:05:54.895Z,4.70
2023-05-06T08:06:54.894Z,5.00
2023-05-06T08:07:54.914Z,4.40
2023-05-06T08:08:54.888Z,4.50
2023-05-06T08:09:54.879Z,3.90
2023-05-06T08:10:54.836Z,4.00
2023-05-06T08:11:54.957Z,4.00
2023-05-06T08:12:54.922Z,4.40
2023-05-06T08:13:54.829Z,3.70
2023-05-06T08:14:54.807Z,3.90
2023-05-06T08:15:54.842Z,3.00
2023-05-06T08:16:54.789Z,3.20
2023-05-06T08:17:55.254Z,3.50
2023-05-06T08:18:54.806Z,3.50
2023-05-06T08:19:54.764Z,3.40
2023-05-06T08:20:54.755Z,3.60
2023-05-06T08:21:54.760Z,3.80
2023-05-06T08:22:54.717Z,3.50
2023-05-06T08:23:54.724Z,3.50
2023-05-06T08:24:54.731Z,3.50
2023-05-06T08:25:54.730Z,3.10
2023-05-06T08:26:54.696Z,3.40
2023-05-06T08:27:54.681Z,3.30
2023-05-06T08:28:54.673Z,3.50
2023-05-06T08:29:54.683Z,3.20
2023-05-06T08:30:54.673Z,3.10
2023-05-06T08:31:54.679Z,3.30
2023-05-06T08:32:54.667Z,3.20
2023-05-06T08:33:55.037Z,3.20
2023-05-06T08:34:54.622Z,2.80
2023-05-06T08:35:54.611Z,3.00
2023-05-06T08:36:54.579Z,3.40
2023-05-06T08:37:54.572Z,3.30
2023-05-06T08:38:54.592Z,3.50
2023-05-06T08:39:54.549Z,3.90
2023-05-06T08:40:54.592Z,3.30
2023-05-06T08:41:54.563Z,3.60
2023-05-06T08:42:54.532Z,3.50
2023-05-06T08:43:54.564Z,3.40
2023-05-06T08:44:54.491Z,3.20
2023-05-06T08:45:54.528Z,3.30
2023-05-06T08:46:54.477Z,3.10
2023-05-06T08:47:54.531Z,3.10
2023-05-06T08:48:54.490Z,2.90
2023-05-06T08:49:54.450Z,3.10
2023-05-06T08:50:54.446Z,3.30
2023-05-06T08:51:54.442Z,3.00
2023-05-06T08:52:54.447Z,2.50
2023-05-06T08:53:54.637Z,2.80
2023-05-06T08:54:54.395Z,2.60
2023-05-06T08:55:54.398Z,2.60
2023-05-06T08:56:54.415Z,2.50
2023-05-06T08:57:54.408Z,2.50
2023-05-06T08:58:54.380Z,2.70
2023-05-06T08:59:54.353Z,2.60
2023-05-06T09:00:54.382Z,2.80
2023-05-06T09:01:54.476Z,2.50
2023-05-06T09:02:54.441Z,2.50
2023-05-06T09:03:54.358Z,2.60
2023-05-06T09:04:54.329Z,2.70
2023-05-06T09:05:54.334Z,2.40
2023-05-06T09:06:54.365Z,2.50
2023-05-06T09:07:54.310Z,2.40
2023-05-06T09:08:54.309Z,2.20
2023-05-06T09:09:54.313Z,2.20
2023-05-06T09:10:54.276Z,2.10
2023-05-06T09:11:54.250Z,2.30
2023-05-06T09:12:54.269Z,2.60
2023-05-06T09:13:54.278Z,2.60
2023-05-06T09:14:54.260Z,2.70
2023-05-06T09:15:54.218Z,2.30
2023-05-06T09:16:54.280Z,2.30
2023-05-06T09:17:54.254Z,2.60
2023-05-06T09:18:54.201Z,2.30
2023-05-06T09:19:54.181Z,2.10
2023-05-06T09:20:54.208Z,2.20
2023-05-06T09:21:54.231Z,2.10
2023-05-06T09:22:54.159Z,2.10
2023-05-06T09:23:54.171Z,2.30
2023-05-06T09:24:54.180Z,2.40
2023-05-06T09:25:54.150Z,2.20
2023-05-06T09:26:54.113Z,2.10
2023-05-06T09:27:54.125Z,2.10
2023-05-06T09:28:54.120Z,2.10
2023-05-06T09:29:54.119Z,2.10
2023-05-06T09:30:54.116Z,2.10
2023-05-06T09:31:55.592Z,2.10
2023-05-06T09:32:54.079Z,2.00
2023-05-06T09:33:54.100Z,2.00
2023-05-06T09:34:54.601Z,1.80
2023-05-06T09:37:04.186Z,2.10
2023-05-06T09:38:07.085Z,2.00
2023-05-06T09:39:05.194Z,2.00
2023-05-06T09:40:05.169Z,2.20
2023-05-06T09:41:05.161Z,2.20
2023-05-06T09:42:05.101Z,2.00
2023-05-06T09:43:05.139Z,2.30
2023-05-06T09:44:05.104Z,2.20
2023-05-06T09:45:05.132Z,2.00
2023-05-06T09:46:05.176Z,1.90
2023-05-06T09:47:05.086Z,2.00
2023-05-06T09:48:05.086Z,2.20
2023-05-06T09:49:05.069Z,2.10
2023-05-06T09:50:05.082Z,2.20
2023-05-06T09:51:05.079Z,1.90
2023-05-06T09:52:05.004Z,1.90
2023-05-06T09:53:05.022Z,1.90
2023-05-06T09:54:05.029Z,1.90
2023-05-06T09:55:05.009Z,1.90
2023-05-06T09:56:05.000Z,1.90
2023-05-06T09:57:04.976Z,1.90
2023-05-06T09:58:04.983Z,2.00
2023-05-06T09:59:05.009Z,2.20
2023-05-06T10:00:04.926Z,2.30
2023-05-06T10:01:04.921Z,2.40
2023-05-06T10:02:04.985Z,2.20
2023-05-06T10:03:05.052Z,2.20
2023-05-06T10:04:05.215Z,2.40
2023-05-06T10:05:04.961Z,2.30
2023-05-06T10:06:04.862Z,2.10
2023-05-06T10:07:04.862Z,2.20
2023-05-06T10:08:08.320Z,2.40
2023-05-06T10:09:04.852Z,2.20
2023-05-06T10:10:04.845Z,2.10
2023-05-06T10:11:04.861Z,2.20
2023-05-06T10:12:04.850Z,2.20
2023-05-06T10:13:04.911Z,2.20
2023-05-06T10:14:04.811Z,2.50
2023-05-06T10:15:04.795Z,2.50
2023-05-06T10:16:04.827Z,2.10
2023-05-06T10:17:04.815Z,2.40
2023-05-06T10:18:04.866Z,2.30
2023-05-06T10:19:04.821Z,2.40
2023-05-06T10:20:04.772Z,2.30
2023-05-06T10:21:04.744Z,2.10
2023-05-06T10:22:05.740Z,2.00
2023-05-06T10:23:04.712Z,2.10
2023-05-06T10:24:04.723Z,2.20
2023-05-06T10:25:04.750Z,2.00
2023-05-06T10:26:04.788Z,2.00
2023-05-06T10:27:04.727Z,2.00
2023-05-06T10:28:06.154Z,2.00
2023-05-06T10:29:04.732Z,2.00
2023-05-06T10:30:04.705Z,2.10
2023-05-06T10:31:04.751Z,1.90
2023-05-06T10:32:04.744Z,2.00
2023-05-06T10:33:04.690Z,1.90
2023-05-06T10:34:04.627Z,2.00
2023-05-06T10:35:04.598Z,1.90
2023-05-06T10:36:04.667Z,1.80
2023-05-06T10:37:04.596Z,2.10
2023-05-06T10:38:05.234Z,2.30
2023-05-06T10:39:06.060Z,1.90
2023-05-06T10:40:06.325Z,2.10
2023-05-06T10:41:07.065Z,1.80
2023-05-06T10:42:06.931Z,2.10
2023-05-06T10:43:04.512Z,2.00
2023-05-06T10:44:04.529Z,2.10
2023-05-06T10:45:04.554Z,1.90
2023-05-06T10:46:04.557Z,1.80
2023-05-06T10:47:04.549Z,2.10
2023-05-06T10:48:04.496Z,1.70
2023-05-06T10:49:04.490Z,1.80
2023-05-06T10:50:04.493Z,1.80
2023-05-06T10:51:04.450Z,2.10
2023-05-06T10:52:04.434Z,2.20
2023-05-06T10:53:04.425Z,2.30
2023-05-06T10:54:04.472Z,2.40
2023-05-06T10:55:04.438Z,2.10
2023-05-06T10:56:04.411Z,2.00
2023-05-06T10:57:04.419Z,2.20
2023-05-06T10:58:04.396Z,2.20
2023-05-06T10:59:04.388Z,2.40
2023-05-06T11:00:04.390Z,2.30
2023-05-06T11:01:04.429Z,2.10
2023-05-06T11:02:04.401Z,2.00
2023-05-06T11:03:04.376Z,2.00
2023-05-06T11:04:04.339Z,2.30
2023-05-06T11:05:04.306Z,2.10
2023-05-06T11:06:04.338Z,2.30
2023-05-06T11:07:04.285Z,2.10
2023-05-06T11:08:04.287Z,1.90
2023-05-06T11:09:04.314Z,2.00
2023-05-06T11:10:04.263Z,2.20
2023-05-06T11:11:04.262Z,2.30
2023-05-06T11:12:04.230Z,1.90
2023-05-06T11:13:04.254Z,2.20
2023-05-06T11:14:04.287Z,1.80
2023-05-06T11:15:04.233Z,2.20
2023-05-06T11:16:04.301Z,1.80
2023-05-06T11:17:04.346Z,1.70
2023-05-06T11:18:04.283Z,2.00
2023-05-06T11:19:04.195Z,2.10
2023-05-06T11:20:04.167Z,1.90
2023-05-06T11:21:04.157Z,1.80
2023-05-06T11:22:04.157Z,1.90
2023-05-06T11:23:04.173Z,1.90
2023-05-06T11:24:04.144Z,1.80
2023-05-06T11:25:04.104Z,2.10
2023-05-06T11:26:04.132Z,2.00
2023-05-06T11:27:04.175Z,1.80
2023-05-06T11:28:04.102Z,1.70
2023-05-06T11:29:04.125Z,2.00
2023-05-06T11:30:04.068Z,1.90
2023-05-06T11:31:04.092Z,1.90
2023-05-06T11:32:04.069Z,1.90
2023-05-06T11:33:05.502Z,2.00
2023-05-06T11:34:04.091Z,1.90
2023-05-06T11:35:03.985Z,1.80
2023-05-06T11:36:04.044Z,1.80
2023-05-06T11:37:04.044Z,2.00
2023-05-06T11:38:04.037Z,1.90
2023-05-06T11:39:05.261Z,1.80
2023-05-06T11:40:03.967Z,1.70
2023-05-06T11:41:03.965Z,1.80
2023-05-06T11:42:03.962Z,1.90
2023-05-06T11:43:03.940Z,1.80
2023-05-06T11:44:03.917Z,1.60
2023-05-06T11:45:03.894Z,1.80
2023-05-06T11:46:03.984Z,1.70
2023-05-06T11:47:03.888Z,1.90
2023-05-06T11:48:03.908Z,2.10
2023-05-06T11:49:03.894Z,1.90
2023-05-06T11:50:03.851Z,2.20
2023-05-06T11:51:03.890Z,2.00
2023-05-06T11:52:03.865Z,2.00
2023-05-06T11:53:03.869Z,2.30
2023-05-06T11:54:03.845Z,2.00
2023-05-06T11:55:03.853Z,2.10
2023-05-06T11:56:03.844Z,2.10
2023-05-06T11:57:03.770Z,2.10
2023-05-06T11:58:03.765Z,2.00
2023-05-06T11:59:03.788Z,1.80
2023-05-06T12:00:03.775Z,2.00
2023-05-06T12:01:03.721Z,1.90
2023-05-06T12:02:03.721Z,2.10
2023-05-06T12:03:03.745Z,1.90
2023-05-06T12:04:03.839Z,2.00
2023-05-06T12:05:03.758Z,2.20
2023-05-06T12:06:03.704Z,2.10
2023-05-06T12:07:03.709Z,2.30
2023-05-06T12:08:06.390Z,2.20
2023-05-06T12:09:03.711Z,2.20
2023-05-06T12:10:03.673Z,2.20
2023-05-06T12:11:03.619Z,2.10
2023-05-06T12:12:03.624Z,2.30
2023-05-06T12:13:03.632Z,2.30
2023-05-06T12:14:03.626Z,2.10
2023-05-06T12:15:03.605Z,2.00
2023-05-06T12:16:03.577Z,2.00
2023-05-06T12:17:03.585Z,1.90
2023-05-06T12:18:03.616Z,2.20
2023-05-06T12:19:03.604Z,1.80
2023-05-06T12:20:03.569Z,2.10
2023-05-06T12:21:03.704Z,2.10
2023-05-06T12:22:03.636Z,1.90
2023-05-06T12:23:03.603Z,1.90
2023-05-06T12:24:03.618Z,1.90
2023-05-06T12:25:03.496Z,1.80
2023-05-06T12:26:03.464Z,2.10
2023-05-06T12:27:03.623Z,1.90
2023-05-06T12:28:03.804Z,2.10
2023-05-06T12:29:03.473Z,2.00
2023-05-06T12:30:03.440Z,1.90
2023-05-06T12:31:03.427Z,1.80
2023-05-06T12:32:03.517Z,1.80
2023-05-06T12:33:03.518Z,2.00
2023-05-06T12:34:03.457Z,2.00
2023-05-06T12:35:03.388Z,1.70
2023-05-06T12:36:03.380Z,1.70
2023-05-06T12:37:03.387Z,1.80
2023-05-06T12:38:03.396Z,1.90
2023-05-06T12:39:03.344Z,1.80
2023-05-06T12:40:03.357Z,1.80
2023-05-06T12:41:03.312Z,2.00
2023-05-06T12:42:03.490Z,2.00
2023-05-06T12:43:03.353Z,1.80
2023-05-06T12:44:03.298Z,1.80
2023-05-06T12:45:03.280Z,1.70
2023-05-06T12:46:03.368Z,1.70
2023-05-06T12:47:03.304Z,1.90
2023-05-06T12:48:03.276Z,1.80
2023-05-06T12:49:03.388Z,1.80
2023-05-06T12:50:03.380Z,1.80
2023-05-06T12:51:03.242Z,1.90
2023-05-06T12:52:03.280Z,2.00
2023-05-06T12:53:03.219Z,2.20
2023-05-06T12:54:03.184Z,2.00
2023-05-06T12:55:03.207Z,2.00
2023-05-06T12:56:03.189Z,2.10
2023-05-06T12:57:03.150Z,2.10
2023-05-06T12:58:03.137Z,1.80
2023-05-06T12:59:03.138Z,1.90
2023-05-06T13:00:03.104Z,2.00
2023-05-06T13:01:03.156Z,2.10
2023-05-06T13:02:03.144Z,2.20
2023-05-06T13:03:03.143Z,2.10
2023-05-06T13:04:03.087Z,2.00
2023-05-06T13:05:03.109Z,2.20
2023-05-06T13:06:03.083Z,2.20
2023-05-06T13:07:03.050Z,2.30
2023-05-06T13:08:03.029Z,2.10
2023-05-06T13:09:03.027Z,2.10
2023-05-06T13:10:03.048Z,2.10
2023-05-06T13:11:03.115Z,1.90
2023-05-06T13:12:02.999Z,2.20
2023-05-06T13:13:02.986Z,2.10
2023-05-06T13:14:03.024Z,2.30
2023-05-06T13:15:02.971Z,2.10
2023-05-06T13:16:02.933Z,2.00
2023-05-06T13:17:02.986Z,2.20
2023-05-06T13:18:02.987Z,2.00
2023-05-06T13:19:03.111Z,2.10